Time;durP1;ratioP1;P1;durP2;ratioP2;P2;SDS_P1;SDS_P2;PMS_P1;PMS_P2;Temp;Humidity;BMP_temperature;BMP_pressure;BME280_temperature;BME280_humidity;BME280_pressure;Samples;Min_cycle;Max_cycle;Signal;HPM_P1;HPM_P2
2021/01/01 00:02:19;;;;;;;21.40;12.70;;;;;;;;;;5032671;28;20476;-65
2021/01/01 00:04:45;;;;;;;21.23;11.30;;;;;;;;;;5034428;28;20418;-67
2021/01/01 00:07:11;;;;;;;21.27;11.30;;;;;;;;;;5032422;28;20470;-66
2021/01/01 00:09:37;;;;;;;23.57;13.17;;;;;;;;;;5034041;28;20403;-65
2021/01/01 00:12:03;;;;;;;17.80;12.17;;;;;;;;;;5030712;28;20481;-66
2021/01/01 00:14:29;;;;;;;20.60;12.23;;;;;;;;;;5032775;28;20446;-65
2021/01/01 00:16:55;;;;;;;17.70;10.90;;;;;;;;;;5032912;28;20426;-65
2021/01/01 00:19:21;;;;;;;19.03;11.77;;;;;;;;;;5033895;28;20403;-65
2021/01/01 00:21:47;;;;;;;20.00;12.10;;;;;;;;;;5032671;28;20431;-65
2021/01/01 00:24:13;;;;;;;18.03;10.10;;;;;;;;;;5033489;28;20430;-65
2021/01/01 00:26:39;;;;;;;20.43;11.27;;;;;;;;;;5032717;28;20457;-66
2021/01/01 00:29:06;;;;;;;15.77;10.37;;;;;;;;;;5032862;28;20411;-65
2021/01/01 00:31:32;;;;;;;18.33;11.13;;;;;;;;;;5032123;28;20435;-65
2021/01/01 00:33:58;;;;;;;20.80;11.03;;;;;;;;;;5033669;28;20793;-65
2021/01/01 00:36:24;;;;;;;21.50;11.30;;;;;;;;;;5032632;28;20429;-65
2021/01/01 00:38:51;;;;;;;15.17;8.93;;;;;;;;;;5033332;28;20935;-65
2021/01/01 00:41:43;;;;;;;13.73;9.60;;;;;;;;;;5032728;28;20495;-66
2021/01/01 00:44:11;;;;;;;14.33;8.80;;;;;;;;;;5032591;28;20486;-66
2021/01/01 00:46:37;;;;;;;16.40;9.00;;;;;;;;;;5032572;28;20568;-66
2021/01/01 00:49:03;;;;;;;14.70;9.40;;;;;;;;;;5033708;28;20482;-66
2021/01/01 00:51:29;;;;;;;14.77;10.00;;;;;;;;;;5032876;28;20602;-66
2021/01/01 00:53:55;;;;;;;15.63;10.67;;;;;;;;;;5033047;28;20449;-66
2021/01/01 00:56:22;;;;;;;12.87;9.40;;;;;;;;;;5031426;28;20945;-66
2021/01/01 00:58:49;;;;;;;18.47;9.60;;;;;;;;;;5033242;28;20541;-66
2021/01/01 01:01:16;;;;;;;23.73;11.20;;;;;;;;;;5032366;28;20438;-65
2021/01/01 01:03:42;;;;;;;18.23;12.00;;;;;;;;;;5031884;28;20816;-66
2021/01/01 01:06:08;;;;;;;17.17;10.93;;;;;;;;;;5033159;28;20438;-65
2021/01/01 01:08:34;;;;;;;25.80;13.10;;;;;;;;;;5032237;28;20517;-65
2021/01/01 01:11:00;;;;;;;20.57;11.33;;;;;;;;;;5033173;28;20427;-65
2021/01/01 01:13:26;;;;;;;18.83;11.00;;;;;;;;;;5027927;28;20934;-65
2021/01/01 01:15:52;;;;;;;19.07;11.73;;;;;;;;;;5032733;28;20407;-65
2021/01/01 01:18:18;;;;;;;26.27;10.80;;;;;;;;;;5032026;28;20853;-65
2021/01/01 01:20:44;;;;;;;14.50;9.07;;;;;;;;;;5032809;28;20407;-65
2021/01/01 01:23:10;;;;;;;14.70;9.30;;;;;;;;;;5031702;28;20469;-65
2021/01/01 01:25:36;;;;;;;17.63;9.90;;;;;;;;;;5032799;28;20422;-65
2021/01/01 01:28:02;;;;;;;14.60;9.47;;;;;;;;;;5032043;28;20921;-66
2021/01/01 01:30:28;;;;;;;15.40;8.83;;;;;;;;;;5031839;28;20450;-65
2021/01/01 01:32:54;;;;;;;21.10;11.97;;;;;;;;;;5032746;28;20959;-65
2021/01/01 01:35:20;;;;;;;13.67;8.67;;;;;;;;;;5033151;28;20441;-65
2021/01/01 01:37:46;;;;;;;14.10;8.77;;;;;;;;;;5031043;28;20907;-65
2021/01/01 01:40:12;;;;;;;14.10;8.30;;;;;;;;;;5033109;28;20407;-65
2021/01/01 01:42:38;;;;;;;14.80;8.40;;;;;;;;;;5031705;28;20573;-65
2021/01/01 01:45:06;;;;;;;16.10;9.70;;;;;;;;;;5033278;28;20407;-65
2021/01/01 01:47:32;;;;;;;15.20;7.70;;;;;;;;;;5032360;28;20451;-65
2021/01/01 01:49:58;;;;;;;13.80;8.33;;;;;;;;;;5032836;28;20409;-65
2021/01/01 01:52:24;;;;;;;12.43;8.57;;;;;;;;;;5031596;28;20490;-65
2021/01/01 01:54:51;;;;;;;12.93;7.80;;;;;;;;;;5032651;28;20880;-65
2021/01/01 01:57:17;;;;;;;12.30;7.30;;;;;;;;;;5031887;28;20430;-65
2021/01/01 01:59:44;;;;;;;21.33;8.03;;;;;;;;;;5032632;28;20426;-65
2021/01/01 02:02:11;;;;;;;12.13;7.40;;;;;;;;;;5030312;28;20454;-65
2021/01/01 02:04:37;;;;;;;16.00;7.10;;;;;;;;;;5032736;28;20410;-65
2021/01/01 02:07:03;;;;;;;14.10;8.10;;;;;;;;;;5031289;28;20490;-65
2021/01/01 02:09:29;;;;;;;14.83;6.83;;;;;;;;;;5034334;28;20426;-65
2021/01/01 02:11:55;;;;;;;11.87;6.83;;;;;;;;;;5036877;28;20411;-65
2021/01/01 02:14:21;;;;;;;10.70;7.03;;;;;;;;;;5030468;28;20434;-65
2021/01/01 02:16:48;;;;;;;12.60;6.60;;;;;;;;;;5035156;28;20606;-65
2021/01/01 02:19:14;;;;;;;12.23;7.80;;;;;;;;;;5035668;28;20427;-65
2021/01/01 02:21:41;;;;;;;10.87;6.47;;;;;;;;;;5036839;28;20858;-67
2021/01/01 02:24:08;;;;;;;9.17;6.13;;;;;;;;;;5034966;28;21005;-66
2021/01/01 02:26:34;;;;;;;12.00;7.00;;;;;;;;;;5036117;28;20410;-65
2021/01/01 02:29:00;;;;;;;15.57;7.43;;;;;;;;;;5035837;28;20809;-65
2021/01/01 02:31:26;;;;;;;9.07;6.57;;;;;;;;;;5034856;28;20437;-65
2021/01/01 02:33:52;;;;;;;8.20;5.30;;;;;;;;;;5034998;28;20451;-66
2021/01/01 02:36:18;;;;;;;7.87;6.20;;;;;;;;;;5033986;28;20457;-65
2021/01/01 02:38:46;;;;;;;7.80;5.93;;;;;;;;;;5034662;28;20431;-65
2021/01/01 02:41:12;;;;;;;12.37;5.97;;;;;;;;;;5035942;28;20407;-66
2021/01/01 02:43:38;;;;;;;8.00;5.23;;;;;;;;;;5034899;28;20486;-65
2021/01/01 02:46:04;;;;;;;14.90;7.30;;;;;;;;;;5035704;28;20430;-66
2021/01/01 02:48:30;;;;;;;9.07;5.63;;;;;;;;;;5032528;28;20419;-66
2021/01/01 02:50:56;;;;;;;13.00;6.40;;;;;;;;;;5035458;28;20458;-66
2021/01/01 02:53:22;;;;;;;6.23;5.53;;;;;;;;;;5033482;28;20457;-66
2021/01/01 02:55:49;;;;;;;10.27;5.77;;;;;;;;;;5035611;28;20426;-65
2021/01/01 02:58:15;;;;;;;11.20;6.40;;;;;;;;;;5034799;28;20407;-66
2021/01/01 03:00:42;;;;;;;11.30;5.27;;;;;;;;;;5034404;28;20426;-66
2021/01/01 03:03:08;;;;;;;8.67;5.97;;;;;;;;;;5033039;28;20553;-66
2021/01/01 03:05:35;;;;;;;7.53;5.23;;;;;;;;;;5035376;28;20403;-66
2021/01/01 03:08:01;;;;;;;9.77;6.20;;;;;;;;;;5034731;28;20395;-66
2021/01/01 03:10:27;;;;;;;8.90;5.30;;;;;;;;;;5035099;28;20490;-66
2021/01/01 03:12:53;;;;;;;8.60;6.10;;;;;;;;;;5035211;28;20423;-65
2021/01/01 03:15:19;;;;;;;9.50;4.60;;;;;;;;;;5032827;28;20426;-66
2021/01/01 03:17:45;;;;;;;9.57;4.63;;;;;;;;;;5033673;28;20518;-66
2021/01/01 03:20:11;;;;;;;6.13;4.63;;;;;;;;;;5033577;28;20509;-66
2021/01/01 03:22:38;;;;;;;7.80;6.10;;;;;;;;;;5034207;28;20475;-66
2021/01/01 03:25:05;;;;;;;11.07;5.03;;;;;;;;;;5034229;28;20939;-66
2021/01/01 03:27:31;;;;;;;7.60;5.23;;;;;;;;;;5035916;28;20765;-66
2021/01/01 03:29:57;;;;;;;8.00;4.60;;;;;;;;;;5034735;28;20793;-66
2021/01/01 03:32:23;;;;;;;9.30;5.33;;;;;;;;;;5036278;28;20430;-66
2021/01/01 03:34:49;;;;;;;8.90;5.23;;;;;;;;;;5036300;28;20439;-66
2021/01/01 03:37:15;;;;;;;8.40;5.13;;;;;;;;;;5036472;28;20456;-66
2021/01/01 03:39:41;;;;;;;8.30;5.80;;;;;;;;;;5035473;28;20435;-66
2021/01/01 03:42:09;;;;;;;8.80;6.10;;;;;;;;;;5035903;28;20411;-66
2021/01/01 03:44:36;;;;;;;18.03;6.13;;;;;;;;;;5035028;28;20430;-66
2021/01/01 03:47:03;;;;;;;7.63;5.80;;;;;;;;;;5034842;28;20465;-66
2021/01/01 03:49:29;;;;;;;9.23;5.13;;;;;;;;;;5034054;28;20911;-66
2021/01/01 03:51:55;;;;;;;7.90;5.17;;;;;;;;;;5034759;28;20457;-66
2021/01/01 03:54:21;;;;;;;10.20;6.13;;;;;;;;;;5032868;28;20439;-66
2021/01/01 03:56:47;;;;;;;11.03;4.87;;;;;;;;;;5034369;28;20399;-66
2021/01/01 03:59:13;;;;;;;8.87;4.57;;;;;;;;;;5033477;28;20935;-66
2021/01/01 04:01:39;;;;;;;10.73;5.83;;;;;;;;;;5034400;28;20407;-66
2021/01/01 04:04:05;;;;;;;7.53;5.13;;;;;;;;;;5033041;28;20837;-66
2021/01/01 04:06:31;;;;;;;10.40;5.80;;;;;;;;;;5034486;28;20411;-65
2021/01/01 04:08:57;;;;;;;10.20;5.70;;;;;;;;;;5033307;28;20427;-66
2021/01/01 04:11:23;;;;;;;9.80;4.97;;;;;;;;;;5034091;28;20756;-66
2021/01/01 04:13:48;;;;;;;8.70;5.20;;;;;;;;;;5033101;28;20525;-66
2021/01/01 04:16:14;;;;;;;9.87;5.30;;;;;;;;;;5032857;28;20403;-66
2021/01/01 04:18:40;;;;;;;6.97;5.40;;;;;;;;;;5029342;28;20431;-65
2021/01/01 04:21:07;;;;;;;11.73;5.70;;;;;;;;;;5034335;28;20406;-65
2021/01/01 04:23:34;;;;;;;10.47;6.07;;;;;;;;;;5033846;28;20466;-66
2021/01/01 04:26:00;;;;;;;9.70;4.63;;;;;;;;;;5032763;28;20950;-67
2021/01/01 04:28:26;;;;;;;9.73;6.60;;;;;;;;;;5032276;28;20926;-66
2021/01/01 04:30:52;;;;;;;13.43;6.37;;;;;;;;;;5033631;28;20462;-65
2021/01/01 04:33:18;;;;;;;9.23;5.83;;;;;;;;;;5034219;28;20473;-65
2021/01/01 04:35:44;;;;;;;9.30;5.80;;;;;;;;;;5033012;28;20426;-65
2021/01/01 04:38:10;;;;;;;10.87;6.50;;;;;;;;;;5033801;28;20895;-66
2021/01/01 04:40:36;;;;;;;11.07;6.10;;;;;;;;;;5033356;28;20434;-66
2021/01/01 04:43:02;;;;;;;9.77;6.83;;;;;;;;;;5033344;28;20459;-65
2021/01/01 04:45:28;;;;;;;8.83;5.13;;;;;;;;;;5032394;28;20440;-66
2021/01/01 04:47:55;;;;;;;14.43;6.40;;;;;;;;;;5033686;28;20403;-66
2021/01/01 04:50:21;;;;;;;10.67;5.40;;;;;;;;;;5032594;28;20427;-65
2021/01/01 04:52:49;;;;;;;11.67;5.10;;;;;;;;;;5033812;28;20458;-65
2021/01/01 04:55:16;;;;;;;9.63;5.73;;;;;;;;;;5032553;28;20794;-65
2021/01/01 04:57:43;;;;;;;10.10;5.90;;;;;;;;;;5033426;28;20429;-65
2021/01/01 05:00:09;;;;;;;11.73;6.50;;;;;;;;;;5032242;28;20441;-65
2021/01/01 05:02:35;;;;;;;9.90;6.03;;;;;;;;;;5031908;28;20465;-65
2021/01/01 05:05:02;;;;;;;13.03;6.50;;;;;;;;;;5031604;28;20785;-65
2021/01/01 05:07:28;;;;;;;14.03;5.90;;;;;;;;;;5033422;28;20806;-64
2021/01/01 05:09:54;;;;;;;7.93;5.60;;;;;;;;;;5031891;28;20427;-65
2021/01/01 05:12:20;;;;;;;8.13;5.00;;;;;;;;;;5032978;28;20415;-65
2021/01/01 05:14:46;;;;;;;8.37;5.43;;;;;;;;;;5031737;28;20850;-67
2021/01/01 05:17:12;;;;;;;10.60;6.40;;;;;;;;;;5033190;28;20453;-66
2021/01/01 05:19:42;;;;;;;8.37;6.10;;;;;;;;;;5029795;28;20842;-66
2021/01/01 05:22:09;;;;;;;9.40;5.90;;;;;;;;;;5032819;28;20410;-67
2021/01/01 05:24:38;;;;;;;8.90;5.60;;;;;;;;;;5031980;28;20422;-67
2021/01/01 05:27:11;;;;;;;8.97;5.90;;;;;;;;;;5031353;28;20427;-65
2021/01/01 05:29:57;;;;;;;8.20;5.40;;;;;;;;;;5032313;28;20414;-65
2021/01/01 05:32:24;;;;;;;11.33;6.30;;;;;;;;;;5033407;28;20428;-65
2021/01/01 05:34:50;;;;;;;9.23;6.17;;;;;;;;;;5031870;28;20433;-66
2021/01/01 05:37:26;;;;;;;10.83;5.73;;;;;;;;;;5032998;28;20823;-67
2021/01/01 05:40:11;;;;;;;14.73;7.87;;;;;;;;;;5032581;28;20476;-66
2021/01/01 05:42:37;;;;;;;9.10;5.27;;;;;;;;;;5032184;28;20469;-66
2021/01/01 05:45:16;;;;;;;9.30;5.97;;;;;;;;;;5027377;28;20471;-66
2021/01/01 05:47:42;;;;;;;10.87;6.70;;;;;;;;;;5019528;28;20422;-66
2021/01/01 05:50:09;;;;;;;11.20;7.17;;;;;;;;;;5036022;28;20492;-66
2021/01/01 05:52:35;;;;;;;8.40;5.90;;;;;;;;;;5036355;28;20442;-67
2021/01/01 05:55:02;;;;;;;11.23;6.43;;;;;;;;;;5035982;28;20439;-66
2021/01/01 05:57:35;;;;;;;13.47;7.47;;;;;;;;;;5036892;28;20819;-66
2021/01/01 06:00:03;;;;;;;11.30;6.27;;;;;;;;;;5035699;28;20537;-67
2021/01/01 06:02:32;;;;;;;9.13;6.40;;;;;;;;;;5036697;28;20585;-66
2021/01/01 06:04:58;;;;;;;13.03;6.47;;;;;;;;;;5035504;28;20797;-66
2021/01/01 06:07:26;;;;;;;12.63;7.50;;;;;;;;;;5035316;28;20427;-66
2021/01/01 06:09:52;;;;;;;16.87;7.43;;;;;;;;;;5035398;28;20430;-66
2021/01/01 06:12:26;;;;;;;12.47;6.03;;;;;;;;;;5036188;28;20521;-66
2021/01/01 06:14:59;;;;;;;11.60;6.53;;;;;;;;;;5035484;28;20943;-66
2021/01/01 06:17:32;;;;;;;12.70;6.80;;;;;;;;;;5036452;28;20387;-66
2021/01/01 06:19:58;;;;;;;10.87;6.57;;;;;;;;;;5030451;28;20526;-66
2021/01/01 06:22:25;;;;;;;12.00;7.30;;;;;;;;;;5034570;28;20553;-67
2021/01/01 06:24:58;;;;;;;14.20;7.90;;;;;;;;;;5035297;28;20476;-66
2021/01/01 06:27:26;;;;;;;12.27;7.30;;;;;;;;;;5036087;28;20407;-66
2021/01/01 06:29:58;;;;;;;15.67;7.50;;;;;;;;;;5035257;28;20476;-66
2021/01/01 06:32:25;;;;;;;10.43;7.07;;;;;;;;;;5036149;28;20423;-66
2021/01/01 06:34:51;;;;;;;10.27;6.03;;;;;;;;;;5035317;28;20481;-66
2021/01/01 06:37:36;;;;;;;10.70;6.40;;;;;;;;;;5034156;28;20517;-66
2021/01/01 06:40:03;;;;;;;9.93;6.23;;;;;;;;;;5034779;28;20457;-66
2021/01/01 06:42:50;;;;;;;15.77;7.43;;;;;;;;;;5035666;28;20455;-66
2021/01/01 06:45:42;;;;;;;13.17;5.97;;;;;;;;;;5030631;28;20442;-66
2021/01/01 06:48:28;;;;;;;17.60;6.80;;;;;;;;;;5033705;28;20427;-66
2021/01/01 06:50:54;;;;;;;12.43;7.10;;;;;;;;;;5027555;28;20522;-66
2021/01/01 06:53:27;;;;;;;10.20;7.40;;;;;;;;;;5035438;28;20459;-66
2021/01/01 06:55:54;;;;;;;13.80;7.67;;;;;;;;;;5032390;28;20427;-66
2021/01/01 06:58:26;;;;;;;10.80;8.47;;;;;;;;;;5034169;28;20411;-66
2021/01/01 07:00:56;;;;;;;11.23;7.50;;;;;;;;;;5034386;28;20942;-66
2021/01/01 07:03:24;;;;;;;13.77;7.97;;;;;;;;;;5035309;28;20496;-66
2021/01/01 07:05:50;;;;;;;12.53;8.00;;;;;;;;;;5034442;28;20451;-66
2021/01/01 07:08:35;;;;;;;9.90;6.43;;;;;;;;;;5035469;28;20406;-66
2021/01/01 07:11:01;;;;;;;14.17;7.57;;;;;;;;;;5035221;28;20449;-66
2021/01/01 07:13:39;;;;;;;14.63;8.33;;;;;;;;;;5033873;28;20807;-67
2021/01/01 07:16:05;;;;;;;13.43;7.93;;;;;;;;;;5034063;28;20513;-66
2021/01/01 07:18:31;;;;;;;12.00;8.30;;;;;;;;;;5034812;28;20929;-66
2021/01/01 07:21:01;;;;;;;16.63;8.00;;;;;;;;;;5034028;28;20821;-66
2021/01/01 07:23:33;;;;;;;14.47;6.60;;;;;;;;;;5029358;28;20466;-66
2021/01/01 07:25:59;;;;;;;17.37;8.47;;;;;;;;;;5034066;28;20434;-66
2021/01/01 07:28:26;;;;;;;12.07;8.17;;;;;;;;;;5034796;28;20485;-66
2021/01/01 07:30:53;;;;;;;13.03;7.13;;;;;;;;;;5034046;28;20537;-67
2021/01/01 07:33:26;;;;;;;19.10;7.67;;;;;;;;;;5035374;28;20516;-66
2021/01/01 07:35:55;;;;;;;16.60;8.27;;;;;;;;;;5034638;28;20431;-66
2021/01/01 07:38:21;;;;;;;15.67;7.47;;;;;;;;;;5033944;28;20403;-66
2021/01/01 07:40:48;;;;;;;13.10;7.83;;;;;;;;;;5033663;28;20449;-66
2021/01/01 07:43:14;;;;;;;13.17;7.40;;;;;;;;;;5034434;28;20497;-67
2021/01/01 07:45:40;;;;;;;10.63;8.37;;;;;;;;;;5033604;28;20419;-66
2021/01/01 07:48:06;;;;;;;18.10;8.77;;;;;;;;;;5033386;28;20431;-66
2021/01/01 07:50:33;;;;;;;16.00;8.13;;;;;;;;;;5033658;28;20423;-66
2021/01/01 07:53:03;;;;;;;18.67;10.63;;;;;;;;;;5034348;28;20482;-66
2021/01/01 07:55:29;;;;;;;15.93;9.17;;;;;;;;;;5033655;28;20430;-66
2021/01/01 07:57:59;;;;;;;14.53;8.53;;;;;;;;;;5034541;28;20430;-66
2021/01/01 08:00:29;;;;;;;13.67;7.07;;;;;;;;;;5033554;28;20430;-66
2021/01/01 08:02:55;;;;;;;10.73;7.70;;;;;;;;;;5033070;28;20931;-66
2021/01/01 08:05:21;;;;;;;15.17;8.47;;;;;;;;;;5032432;28;20449;-66
2021/01/01 08:07:47;;;;;;;13.73;8.50;;;;;;;;;;5034093;28;20430;-66
2021/01/01 08:10:13;;;;;;;12.83;7.83;;;;;;;;;;5033879;28;20476;-66
2021/01/01 08:12:48;;;;;;;15.00;8.43;;;;;;;;;;5033960;28;20512;-66
2021/01/01 08:15:26;;;;;;;15.90;9.00;;;;;;;;;;5032471;28;20561;-66
2021/01/01 08:17:52;;;;;;;13.03;7.33;;;;;;;;;;5017182;28;20395;-66
2021/01/01 08:20:18;;;;;;;14.33;8.13;;;;;;;;;;5017846;28;20425;-66
2021/01/01 08:22:46;;;;;;;14.57;8.87;;;;;;;;;;5031537;28;20537;-66
2021/01/01 08:25:12;;;;;;;10.70;7.00;;;;;;;;;;5029583;28;20508;-66
2021/01/01 08:27:39;;;;;;;19.13;7.30;;;;;;;;;;5033661;28;20844;-66
2021/01/01 08:30:06;;;;;;;14.90;6.87;;;;;;;;;;5033839;28;20817;-66
2021/01/01 08:32:33;;;;;;;10.53;6.77;;;;;;;;;;5033403;28;20448;-67
2021/01/01 08:34:59;;;;;;;12.70;6.17;;;;;;;;;;5033847;28;20399;-67
2021/01/01 08:37:27;;;;;;;10.30;6.07;;;;;;;;;;5032747;28;20922;-67
2021/01/01 08:40:05;;;;;;;9.30;5.77;;;;;;;;;;5034047;28;20444;-67
2021/01/01 08:42:35;;;;;;;9.23;6.03;;;;;;;;;;5032838;28;20813;-67
2021/01/01 08:45:03;;;;;;;10.60;5.77;;;;;;;;;;5033489;28;20403;-67
2021/01/01 08:47:45;;;;;;;13.23;5.80;;;;;;;;;;5032672;28;20509;-66
2021/01/01 08:50:32;;;;;;;8.80;5.90;;;;;;;;;;5033444;28;20468;-68
2021/01/01 08:53:04;;;;;;;11.60;5.87;;;;;;;;;;5031637;28;20458;-69
2021/01/01 08:55:30;;;;;;;12.73;6.63;;;;;;;;;;5031816;28;20773;-69
2021/01/01 08:58:06;;;;;;;10.23;6.03;;;;;;;;;;5033326;28;20403;-69
2021/01/01 09:00:32;;;;;;;10.80;6.87;;;;;;;;;;5033314;28;20823;-68
2021/01/01 09:02:58;;;;;;;13.93;7.00;;;;;;;;;;5035775;28;20469;-67
2021/01/01 09:05:26;;;;;;;8.37;6.00;;;;;;;;;;5033302;28;20510;-68
2021/01/01 09:08:07;;;;;;;12.60;7.53;;;;;;;;;;5033542;28;20415;-67
2021/01/01 09:10:33;;;;;;;10.13;6.40;;;;;;;;;;5034048;28;20441;-69
2021/01/01 09:12:59;;;;;;;11.40;7.47;;;;;;;;;;5031705;28;20598;-68
2021/01/01 09:15:30;;;;;;;9.27;5.97;;;;;;;;;;5032947;28;20407;-69
2021/01/01 09:18:06;;;;;;;9.80;7.00;;;;;;;;;;5032136;28;20407;-69
2021/01/01 09:20:32;;;;;;;11.73;7.13;;;;;;;;;;5031904;28;20426;-69
2021/01/01 09:23:02;;;;;;;9.40;6.57;;;;;;;;;;5032666;28;20536;-69
2021/01/01 09:25:29;;;;;;;10.77;7.50;;;;;;;;;;5029486;28;20847;-71
2021/01/01 09:27:56;;;;;;;11.77;6.83;;;;;;;;;;5031145;28;20415;-71
2021/01/01 09:30:27;;;;;;;11.63;7.67;;;;;;;;;;5031547;28;20414;-69
2021/01/01 09:33:00;;;;;;;9.80;7.00;;;;;;;;;;5031896;28;20978;-69
2021/01/01 09:35:27;;;;;;;10.83;6.50;;;;;;;;;;5033244;28;20410;-69
2021/01/01 09:37:53;;;;;;;13.80;7.57;;;;;;;;;;5031928;28;20435;-69
2021/01/01 09:40:19;;;;;;;11.57;6.77;;;;;;;;;;5033016;28;20415;-69
2021/01/01 09:42:46;;;;;;;10.97;6.80;;;;;;;;;;5031559;28;20498;-69
2021/01/01 09:45:12;;;;;;;10.83;5.90;;;;;;;;;;5031636;28;20445;-69
2021/01/01 09:47:38;;;;;;;11.37;7.47;;;;;;;;;;5046818;28;20555;-69
2021/01/01 09:50:05;;;;;;;11.53;6.90;;;;;;;;;;5032960;28;20403;-69
2021/01/01 09:52:31;;;;;;;8.67;6.77;;;;;;;;;;5031467;28;20529;-69
2021/01/01 09:54:57;;;;;;;9.20;6.17;;;;;;;;;;5032589;28;20399;-69
2021/01/01 09:57:23;;;;;;;8.20;5.57;;;;;;;;;;5031510;28;20435;-69
2021/01/01 09:59:49;;;;;;;11.57;7.40;;;;;;;;;;5032659;28;20409;-69
2021/01/01 10:02:16;;;;;;;9.90;6.10;;;;;;;;;;5031585;28;20872;-69
2021/01/01 10:04:42;;;;;;;12.60;7.60;;;;;;;;;;5032923;28;20950;-69
2021/01/01 10:07:08;;;;;;;7.73;6.23;;;;;;;;;;5032209;28;20438;-69
2021/01/01 10:09:34;;;;;;;11.43;6.60;;;;;;;;;;5032811;28;20398;-69
2021/01/01 10:12:05;;;;;;;9.47;6.10;;;;;;;;;;5030562;28;20914;-69
2021/01/01 10:14:31;;;;;;;14.20;7.13;;;;;;;;;;5032691;28;20486;-69
2021/01/01 10:16:57;;;;;;;9.87;6.83;;;;;;;;;;5031710;28;20806;-69
2021/01/01 10:19:23;;;;;;;11.90;5.90;;;;;;;;;;5031473;28;20453;-69
2021/01/01 10:21:49;;;;;;;9.53;5.80;;;;;;;;;;5031562;28;20895;-69
2021/01/01 10:24:15;;;;;;;9.47;5.93;;;;;;;;;;5032976;28;20482;-69
2021/01/01 10:26:46;;;;;;;8.70;6.17;;;;;;;;;;5030010;28;20435;-69
2021/01/01 10:29:12;;;;;;;13.50;7.17;;;;;;;;;;5032512;28;20407;-69
2021/01/01 10:31:38;;;;;;;11.90;6.27;;;;;;;;;;5034794;28;20775;-69
2021/01/01 10:34:05;;;;;;;6.47;4.63;;;;;;;;;;5035785;28;20498;-69
2021/01/01 10:36:31;;;;;;;12.83;5.70;;;;;;;;;;5034765;28;20795;-69
2021/01/01 10:38:57;;;;;;;13.80;5.23;;;;;;;;;;5036048;28;20505;-68
2021/01/01 10:41:23;;;;;;;9.77;5.33;;;;;;;;;;5034695;28;20427;-68
2021/01/01 10:43:49;;;;;;;8.57;5.20;;;;;;;;;;5035848;28;20455;-69
2021/01/01 10:46:15;;;;;;;8.47;5.27;;;;;;;;;;5034574;28;20573;-69
2021/01/01 10:48:41;;;;;;;11.00;5.63;;;;;;;;;;5035782;28;20403;-68
2021/01/01 10:51:07;;;;;;;12.00;5.00;;;;;;;;;;5035568;28;20846;-69
2021/01/01 10:53:33;;;;;;;7.17;5.00;;;;;;;;;;5033705;28;20466;-69
2021/01/01 10:55:59;;;;;;;9.30;5.60;;;;;;;;;;5034264;28;20489;-69
2021/01/01 10:58:26;;;;;;;8.90;5.83;;;;;;;;;;5035583;28;20409;-69
2021/01/01 11:00:56;;;;;;;8.60;5.23;;;;;;;;;;5034039;28;20855;-69
2021/01/01 11:03:22;;;;;;;9.13;4.70;;;;;;;;;;5032143;28;20834;-69
2021/01/01 11:05:49;;;;;;;8.80;5.50;;;;;;;;;;5032939;28;20427;-69
2021/01/01 11:08:15;;;;;;;8.87;5.00;;;;;;;;;;5034382;28;20453;-69
2021/01/01 11:10:41;;;;;;;11.27;5.60;;;;;;;;;;5034858;28;20423;-68
2021/01/01 11:13:07;;;;;;;7.30;4.00;;;;;;;;;;5034985;28;20918;-68
2021/01/01 12:22:25;;;;;;;6.57;4.23;;;;;;;;;;5022346;28;20532;-68
2021/01/01 12:24:52;;;;;;;4.93;3.70;;;;;;;;;;5014295;28;20411;-68
2021/01/01 12:27:20;;;;;;;9.23;4.07;;;;;;;;;;5027522;28;20418;-68
2021/01/01 12:29:47;;;;;;;9.57;5.40;;;;;;;;;;5029083;28;20427;-68
2021/01/01 12:32:14;;;;;;;9.10;5.93;;;;;;;;;;5032692;28;20438;-68
2021/01/01 12:34:40;;;;;;;8.77;4.87;;;;;;;;;;5032370;28;20438;-68
2021/01/01 12:37:07;;;;;;;8.10;4.93;;;;;;;;;;5032705;28;20435;-68
2021/01/01 12:39:33;;;;;;;6.70;4.97;;;;;;;;;;5033245;28;20466;-68
2021/01/01 12:41:59;;;;;;;11.50;5.57;;;;;;;;;;5032527;28;20426;-69
2021/01/01 12:44:25;;;;;;;17.53;5.30;;;;;;;;;;5033503;28;20489;-68
2021/01/01 12:46:51;;;;;;;9.37;6.17;;;;;;;;;;5032102;28;20426;-68
2021/01/01 12:49:18;;;;;;;8.60;6.03;;;;;;;;;;5033278;28;20872;-68
2021/01/01 12:51:44;;;;;;;7.93;5.50;;;;;;;;;;5026961;28;20986;-68
2021/01/01 12:54:10;;;;;;;10.10;5.83;;;;;;;;;;5013325;28;20536;-68
2021/01/01 12:56:39;;;;;;;9.47;5.90;;;;;;;;;;5017894;28;20458;-68
2021/01/01 12:59:05;;;;;;;13.43;6.60;;;;;;;;;;5033531;28;20438;-68
2021/01/01 13:01:31;;;;;;;14.47;6.17;;;;;;;;;;5032456;28;20462;-68
2021/01/01 13:03:57;;;;;;;7.80;5.90;;;;;;;;;;5032748;28;20495;-68
2021/01/01 13:06:23;;;;;;;13.07;7.10;;;;;;;;;;5031877;28;20420;-68
2021/01/01 13:08:49;;;;;;;8.97;6.87;;;;;;;;;;5046188;28;20431;-68
2021/01/01 13:11:15;;;;;;;7.90;6.13;;;;;;;;;;5031972;28;20403;-69
2021/01/01 13:13:41;;;;;;;11.27;7.03;;;;;;;;;;5033020;28;20505;-68
2021/01/01 13:16:07;;;;;;;10.33;6.93;;;;;;;;;;5032013;28;20409;-69
2021/01/01 13:18:33;;;;;;;9.23;6.20;;;;;;;;;;5032726;28;20449;-68
2021/01/01 13:20:59;;;;;;;12.53;7.50;;;;;;;;;;5032918;28;20896;-70
2021/01/01 13:23:25;;;;;;;9.40;6.87;;;;;;;;;;5031841;28;20467;-68
2021/01/01 13:25:51;;;;;;;12.80;7.57;;;;;;;;;;5032891;28;20434;-68
2021/01/01 13:28:20;;;;;;;13.43;8.53;;;;;;;;;;5047019;28;20433;-68
2021/01/01 13:30:46;;;;;;;11.23;7.57;;;;;;;;;;5032818;28;20453;-68
2021/01/01 13:33:12;;;;;;;10.63;6.80;;;;;;;;;;5029442;28;20557;-68
2021/01/01 13:35:38;;;;;;;10.93;7.47;;;;;;;;;;5031793;28;20513;-68
2021/01/01 13:38:04;;;;;;;15.43;7.33;;;;;;;;;;5031577;28;20529;-69
2021/01/01 13:40:30;;;;;;;28.47;7.50;;;;;;;;;;5032746;28;20461;-70
2021/01/01 13:42:56;;;;;;;14.77;8.50;;;;;;;;;;5031564;28;20466;-69
2021/01/01 13:45:22;;;;;;;13.00;7.47;;;;;;;;;;5032752;28;20974;-69
2021/01/01 13:47:48;;;;;;;13.97;7.17;;;;;;;;;;5031821;28;20430;-69
2021/01/01 13:50:14;;;;;;;13.30;7.53;;;;;;;;;;5032656;28;20905;-69
2021/01/01 13:52:40;;;;;;;13.63;8.03;;;;;;;;;;5031214;28;20477;-69
2021/01/01 13:55:07;;;;;;;11.50;7.03;;;;;;;;;;5012925;28;20412;-69
2021/01/01 13:57:32;;;;;;;11.23;6.60;;;;;;;;;;5023410;28;20779;-69
2021/01/01 13:59:58;;;;;;;10.60;7.30;;;;;;;;;;5030632;28;20438;-69
2021/01/01 14:02:24;;;;;;;15.40;7.53;;;;;;;;;;5031352;28;20436;-69
2021/01/01 14:04:51;;;;;;;10.80;7.20;;;;;;;;;;5035026;28;20403;-69
2021/01/01 14:07:17;;;;;;;16.33;7.80;;;;;;;;;;5028922;28;20422;-69
2021/01/01 14:09:43;;;;;;;12.60;6.70;;;;;;;;;;5016711;28;20407;-69
2021/01/01 14:12:09;;;;;;;10.37;6.23;;;;;;;;;;5021738;28;20777;-69
2021/01/01 14:14:35;;;;;;;11.00;7.20;;;;;;;;;;5036452;28;20418;-69
2021/01/01 14:17:01;;;;;;;14.37;6.17;;;;;;;;;;5034650;28;20803;-69
2021/01/01 14:19:27;;;;;;;10.77;7.30;;;;;;;;;;5036226;28;20824;-69
2021/01/01 14:21:54;;;;;;;9.73;6.10;;;;;;;;;;5035477;28;20427;-69
2021/01/01 14:24:20;;;;;;;11.67;6.97;;;;;;;;;;5035950;28;20469;-69
2021/01/01 14:26:54;;;;;;;13.30;7.77;;;;;;;;;;5035027;28;20461;-69
2021/01/01 14:29:20;;;;;;;10.30;6.80;;;;;;;;;;5034900;28;20406;-69
2021/01/01 14:31:46;;;;;;;9.80;6.77;;;;;;;;;;5035800;28;23254;-69
2021/01/01 14:34:12;;;;;;;12.90;7.40;;;;;;;;;;5030582;28;20461;-69
2021/01/01 14:36:39;;;;;;;12.53;7.03;;;;;;;;;;5033132;28;20431;-69
2021/01/01 14:39:06;;;;;;;10.37;5.97;;;;;;;;;;5035786;28;20411;-69
2021/01/01 14:41:32;;;;;;;12.77;6.80;;;;;;;;;;5034946;28;20434;-69
2021/01/01 14:43:58;;;;;;;10.63;6.00;;;;;;;;;;5035237;28;20512;-68
2021/01/01 14:46:24;;;;;;;12.80;6.63;;;;;;;;;;5036181;28;20404;-68
2021/01/01 14:48:51;;;;;;;12.57;6.83;;;;;;;;;;5033967;28;20454;-74
2021/01/01 14:51:17;;;;;;;14.20;8.07;;;;;;;;;;5035508;28;20530;-70
2021/01/01 14:53:50;;;;;;;15.50;7.70;;;;;;;;;;5034378;28;20474;-70
2021/01/01 14:56:16;;;;;;;11.07;6.90;;;;;;;;;;5035606;28;20404;-70
2021/01/01 14:58:42;;;;;;;12.83;7.47;;;;;;;;;;5034661;28;20932;-70
2021/01/01 15:01:09;;;;;;;12.83;6.30;;;;;;;;;;5035986;28;20403;-70
2021/01/01 15:03:35;;;;;;;9.00;5.67;;;;;;;;;;5034358;28;20639;-69
2021/01/01 15:06:01;;;;;;;12.60;6.80;;;;;;;;;;5036448;28;20431;-69
2021/01/01 15:08:27;;;;;;;9.30;6.27;;;;;;;;;;5034445;28;20553;-70
2021/01/01 15:10:53;;;;;;;10.93;6.37;;;;;;;;;;5050945;28;20410;-70
2021/01/01 15:13:19;;;;;;;12.10;6.50;;;;;;;;;;5034613;28;20948;-70
2021/01/01 15:15:45;;;;;;;12.57;7.23;;;;;;;;;;5034590;28;20407;-69
2021/01/01 15:18:11;;;;;;;13.23;5.93;;;;;;;;;;5034484;28;20457;-69
2021/01/01 15:20:37;;;;;;;12.40;5.83;;;;;;;;;;5035569;28;20403;-68
2021/01/01 15:23:03;;;;;;;14.70;7.13;;;;;;;;;;5034394;28;20467;-68
2021/01/01 15:25:29;;;;;;;12.20;7.20;;;;;;;;;;5035075;28;20411;-68
2021/01/01 15:27:56;;;;;;;11.83;7.40;;;;;;;;;;5033166;28;20770;-69
2021/01/01 15:30:22;;;;;;;11.23;6.87;;;;;;;;;;5034990;28;20946;-68
2021/01/01 15:32:48;;;;;;;11.00;6.73;;;;;;;;;;5034480;28;20810;-68
2021/01/01 15:35:14;;;;;;;14.50;8.87;;;;;;;;;;5030193;28;20948;-69
2021/01/01 15:37:41;;;;;;;13.07;6.20;;;;;;;;;;5033868;28;20439;-68
2021/01/01 15:40:08;;;;;;;15.37;7.77;;;;;;;;;;5034811;28;20407;-68
2021/01/01 15:42:33;;;;;;;8.00;5.70;;;;;;;;;;5033738;28;20776;-68